sensor_id;sensor_type;location;lat;lon;timestamp;temperature;humidity
674;DHT22;319;48.764;9.174;2024-03-29T00:04:05;10.30;94.60
674;DHT22;319;48.764;9.174;2024-03-29T00:06:31;10.10;94.70
674;DHT22;319;48.764;9.174;2024-03-29T00:08:57;10.20;94.60
674;DHT22;319;48.764;9.174;2024-03-29T00:11:23;10.40;94.50
674;DHT22;319;48.764;9.174;2024-03-29T00:13:50;10.60;79.00
674;DHT22;319;48.764;9.174;2024-03-29T00:16:16;10.30;96.20
674;DHT22;319;48.764;9.174;2024-03-29T00:18:42;10.50;94.20
674;DHT22;319;48.764;9.174;2024-03-29T00:21:08;10.40;97.00
674;DHT22;319;48.764;9.174;2024-03-29T00:23:34;10.50;94.10
674;DHT22;319;48.764;9.174;2024-03-29T00:26:00;10.40;94.10
674;DHT22;319;48.764;9.174;2024-03-29T00:28:26;10.40;94.20
674;DHT22;319;48.764;9.174;2024-03-29T00:30:53;10.50;78.80
674;DHT22;319;48.764;9.174;2024-03-29T00:33:19;10.50;94.80
674;DHT22;319;48.764;9.174;2024-03-29T00:35:45;10.70;98.00
674;DHT22;319;48.764;9.174;2024-03-29T00:38:11;10.70;95.10
674;DHT22;319;48.764;9.174;2024-03-29T00:40:37;10.50;94.70
674;DHT22;319;48.764;9.174;2024-03-29T00:43:03;10.50;79.50
674;DHT22;319;48.764;9.174;2024-03-29T00:45:29;10.60;94.70
674;DHT22;319;48.764;9.174;2024-03-29T00:47:56;10.30;94.80
674;DHT22;319;48.764;9.174;2024-03-29T00:52:49;10.80;94.70
674;DHT22;319;48.764;9.174;2024-03-29T00:55:15;10.50;97.00
674;DHT22;319;48.764;9.174;2024-03-29T00:57:41;10.70;96.60
674;DHT22;319;48.764;9.174;2024-03-29T01:00:08;11.20;94.80
674;DHT22;319;48.764;9.174;2024-03-29T01:05:02;10.70;78.30
674;DHT22;319;48.764;9.174;2024-03-29T01:07:28;10.70;93.90
674;DHT22;319;48.764;9.174;2024-03-29T01:09:54;11.30;94.70
674;DHT22;319;48.764;9.174;2024-03-29T01:14:46;11.30;89.40
674;DHT22;319;48.764;9.174;2024-03-29T01:17:12;10.90;93.50
674;DHT22;319;48.764;9.174;2024-03-29T01:22:05;10.80;94.70
674;DHT22;319;48.764;9.174;2024-03-29T01:26:57;11.00;91.80
674;DHT22;319;48.764;9.174;2024-03-29T01:29:24;11.20;95.30
674;DHT22;319;48.764;9.174;2024-03-29T01:31:50;10.90;96.00
674;DHT22;319;48.764;9.174;2024-03-29T01:34:16;11.00;98.40
674;DHT22;319;48.764;9.174;2024-03-29T01:39:10;11.10;95.40
674;DHT22;319;48.764;9.174;2024-03-29T01:44:02;11.40;95.90
674;DHT22;319;48.764;9.174;2024-03-29T01:48:56;10.60;92.60
674;DHT22;319;48.764;9.174;2024-03-29T01:51:24;12.10;80.50
674;DHT22;319;48.764;9.174;2024-03-29T01:53:52;10.70;94.40
674;DHT22;319;48.764;9.174;2024-03-29T01:56:22;10.70;78.70
674;DHT22;319;48.764;9.174;2024-03-29T02:06:11;10.70;96.50
674;DHT22;319;48.764;9.174;2024-03-29T02:08:39;10.70;93.70
674;DHT22;319;48.764;9.174;2024-03-29T02:11:06;10.40;83.20
674;DHT22;319;48.764;9.174;2024-03-29T02:13:49;10.90;77.80
674;DHT22;319;48.764;9.174;2024-03-29T02:16:17;10.90;93.60
674;DHT22;319;48.764;9.174;2024-03-29T02:23:44;10.80;93.80
674;DHT22;319;48.764;9.174;2024-03-29T02:26:13;10.90;91.90
674;DHT22;319;48.764;9.174;2024-03-29T02:28:40;10.70;93.60
674;DHT22;319;48.764;9.174;2024-03-29T02:36:02;11.10;95.90
674;DHT22;319;48.764;9.174;2024-03-29T02:38:29;11.00;96.30
674;DHT22;319;48.764;9.174;2024-03-29T02:40:56;11.20;93.70
674;DHT22;319;48.764;9.174;2024-03-29T02:43:24;10.90;96.10
674;DHT22;319;48.764;9.174;2024-03-29T02:45:51;11.20;93.20
674;DHT22;319;48.764;9.174;2024-03-29T02:48:18;11.10;95.60
674;DHT22;319;48.764;9.174;2024-03-29T02:50:44;11.00;96.30
674;DHT22;319;48.764;9.174;2024-03-29T02:53:11;11.50;93.10
674;DHT22;319;48.764;9.174;2024-03-29T02:55:37;11.20;95.80
674;DHT22;319;48.764;9.174;2024-03-29T03:00:31;11.30;95.40
674;DHT22;319;48.764;9.174;2024-03-29T03:02:58;11.00;93.60
674;DHT22;319;48.764;9.174;2024-03-29T03:05:24;11.30;94.20
674;DHT22;319;48.764;9.174;2024-03-29T03:07:51;11.30;94.40
674;DHT22;319;48.764;9.174;2024-03-29T03:10:35;11.00;94.40
674;DHT22;319;48.764;9.174;2024-03-29T03:13:19;11.00;94.90
674;DHT22;319;48.764;9.174;2024-03-29T03:15:48;11.10;78.30
674;DHT22;319;48.764;9.174;2024-03-29T03:20:41;11.10;96.70
674;DHT22;319;48.764;9.174;2024-03-29T03:23:07;11.20;83.60
674;DHT22;319;48.764;9.174;2024-03-29T03:25:34;11.30;93.30
674;DHT22;319;48.764;9.174;2024-03-29T03:28:00;11.40;96.10
674;DHT22;319;48.764;9.174;2024-03-29T03:32:55;11.20;93.70
674;DHT22;319;48.764;9.174;2024-03-29T03:35:22;11.40;94.00
674;DHT22;319;48.764;9.174;2024-03-29T03:37:47;11.40;93.90
674;DHT22;319;48.764;9.174;2024-03-29T03:40:14;11.20;93.60
674;DHT22;319;48.764;9.174;2024-03-29T03:42:41;11.20;93.60
674;DHT22;319;48.764;9.174;2024-03-29T03:45:08;11.40;96.90
674;DHT22;319;48.764;9.174;2024-03-29T03:50:04;11.30;93.40
674;DHT22;319;48.764;9.174;2024-03-29T03:52:30;11.20;96.50
674;DHT22;319;48.764;9.174;2024-03-29T03:57:23;11.80;81.20
674;DHT22;319;48.764;9.174;2024-03-29T03:59:50;11.20;94.80
674;DHT22;319;48.764;9.174;2024-03-29T04:02:16;11.40;96.10
674;DHT22;319;48.764;9.174;2024-03-29T04:04:50;11.40;78.70
674;DHT22;319;48.764;9.174;2024-03-29T04:07:20;11.20;96.20
674;DHT22;319;48.764;9.174;2024-03-29T04:09:50;11.50;94.60
674;DHT22;319;48.764;9.174;2024-03-29T04:12:16;11.30;94.00
674;DHT22;319;48.764;9.174;2024-03-29T04:17:09;11.40;93.60
674;DHT22;319;48.764;9.174;2024-03-29T04:19:36;11.30;94.30
674;DHT22;319;48.764;9.174;2024-03-29T04:22:02;11.60;94.80
674;DHT22;319;48.764;9.174;2024-03-29T04:24:30;11.40;94.60
674;DHT22;319;48.764;9.174;2024-03-29T04:26:59;11.30;79.40
674;DHT22;319;48.764;9.174;2024-03-29T04:34:20;11.10;94.70
674;DHT22;319;48.764;9.174;2024-03-29T04:36:45;11.20;97.10
674;DHT22;319;48.764;9.174;2024-03-29T04:39:15;11.30;94.50
674;DHT22;319;48.764;9.174;2024-03-29T04:41:43;11.30;80.70
674;DHT22;319;48.764;9.174;2024-03-29T04:44:13;11.30;81.10
674;DHT22;319;48.764;9.174;2024-03-29T04:46:40;11.40;93.80
674;DHT22;319;48.764;9.174;2024-03-29T04:49:07;11.30;88.20
674;DHT22;319;48.764;9.174;2024-03-29T04:51:33;11.40;93.80
674;DHT22;319;48.764;9.174;2024-03-29T04:54:00;11.50;91.40
674;DHT22;319;48.764;9.174;2024-03-29T04:58:56;11.50;95.00
674;DHT22;319;48.764;9.174;2024-03-29T05:01:23;11.20;95.20
674;DHT22;319;48.764;9.174;2024-03-29T05:03:50;11.60;96.10
674;DHT22;319;48.764;9.174;2024-03-29T05:06:17;11.60;95.00
674;DHT22;319;48.764;9.174;2024-03-29T05:11:11;11.70;93.80
674;DHT22;319;48.764;9.174;2024-03-29T05:13:39;11.50;93.60
674;DHT22;319;48.764;9.174;2024-03-29T05:21:03;11.70;96.30
674;DHT22;319;48.764;9.174;2024-03-29T05:25:57;11.80;93.40
674;DHT22;319;48.764;9.174;2024-03-29T05:28:24;11.80;93.30
674;DHT22;319;48.764;9.174;2024-03-29T05:30:51;11.80;95.40
674;DHT22;319;48.764;9.174;2024-03-29T05:33:19;12.00;95.00
674;DHT22;319;48.764;9.174;2024-03-29T05:35:46;12.00;95.40
674;DHT22;319;48.764;9.174;2024-03-29T05:38:13;12.10;94.20
674;DHT22;319;48.764;9.174;2024-03-29T05:40:40;11.90;93.50
674;DHT22;319;48.764;9.174;2024-03-29T05:43:07;12.00;97.50
674;DHT22;319;48.764;9.174;2024-03-29T05:45:34;12.00;97.80
674;DHT22;319;48.764;9.174;2024-03-29T05:48:01;11.90;94.70
674;DHT22;319;48.764;9.174;2024-03-29T05:50:29;12.10;93.30
674;DHT22;319;48.764;9.174;2024-03-29T05:52:58;12.00;94.70
674;DHT22;319;48.764;9.174;2024-03-29T05:55:26;12.20;94.10
674;DHT22;319;48.764;9.174;2024-03-29T05:57:53;11.90;96.70
674;DHT22;319;48.764;9.174;2024-03-29T06:00:20;12.40;92.90
674;DHT22;319;48.764;9.174;2024-03-29T06:05:14;12.00;92.20
674;DHT22;319;48.764;9.174;2024-03-29T06:07:42;12.20;93.40
674;DHT22;319;48.764;9.174;2024-03-29T06:10:10;12.10;91.80
674;DHT22;319;48.764;9.174;2024-03-29T06:15:05;12.40;95.00
674;DHT22;319;48.764;9.174;2024-03-29T06:20:17;12.40;93.70
674;DHT22;319;48.764;9.174;2024-03-29T06:22:45;12.60;91.60
674;DHT22;319;48.764;9.174;2024-03-29T06:25:13;12.70;94.20
674;DHT22;319;48.764;9.174;2024-03-29T06:27:41;12.80;94.10
674;DHT22;319;48.764;9.174;2024-03-29T06:30:09;13.00;93.20
674;DHT22;319;48.764;9.174;2024-03-29T06:35:04;13.00;94.50
674;DHT22;319;48.764;9.174;2024-03-29T06:37:31;13.10;94.40
674;DHT22;319;48.764;9.174;2024-03-29T06:40:00;13.20;94.00
674;DHT22;319;48.764;9.174;2024-03-29T06:42:27;13.00;93.90
674;DHT22;319;48.764;9.174;2024-03-29T06:44:55;13.20;94.00
674;DHT22;319;48.764;9.174;2024-03-29T06:47:24;13.40;94.10
674;DHT22;319;48.764;9.174;2024-03-29T06:52:18;13.40;93.70
674;DHT22;319;48.764;9.174;2024-03-29T06:57:13;13.50;94.10
674;DHT22;319;48.764;9.174;2024-03-29T06:59:43;13.90;94.40
674;DHT22;319;48.764;9.174;2024-03-29T07:02:10;13.70;93.20
674;DHT22;319;48.764;9.174;2024-03-29T07:04:37;14.10;92.10
674;DHT22;319;48.764;9.174;2024-03-29T07:07:04;13.90;93.90
674;DHT22;319;48.764;9.174;2024-03-29T07:09:31;13.20;92.40
674;DHT22;319;48.764;9.174;2024-03-29T07:11:58;13.50;93.00
674;DHT22;319;48.764;9.174;2024-03-29T07:14:33;14.00;93.80
674;DHT22;319;48.764;9.174;2024-03-29T07:17:01;14.30;93.40
674;DHT22;319;48.764;9.174;2024-03-29T07:19:27;14.00;89.70
674;DHT22;319;48.764;9.174;2024-03-29T07:21:54;14.20;93.10
674;DHT22;319;48.764;9.174;2024-03-29T07:24:21;14.10;93.50
674;DHT22;319;48.764;9.174;2024-03-29T07:26:48;14.00;93.90
674;DHT22;319;48.764;9.174;2024-03-29T07:29:15;14.00;94.00
674;DHT22;319;48.764;9.174;2024-03-29T07:31:43;13.90;94.50
674;DHT22;319;48.764;9.174;2024-03-29T07:34:10;13.60;94.30
674;DHT22;319;48.764;9.174;2024-03-29T07:36:37;13.50;96.20
674;DHT22;319;48.764;9.174;2024-03-29T07:39:05;13.00;94.90
674;DHT22;319;48.764;9.174;2024-03-29T07:41:32;12.80;99.90
674;DHT22;319;48.764;9.174;2024-03-29T07:43:59;12.50;99.90
674;DHT22;319;48.764;9.174;2024-03-29T07:46:31;12.00;99.90
674;DHT22;319;48.764;9.174;2024-03-29T07:48:59;11.70;99.90
674;DHT22;319;48.764;9.174;2024-03-29T07:53:53;11.20;99.90
674;DHT22;319;48.764;9.174;2024-03-29T07:58:50;11.50;99.90
674;DHT22;319;48.764;9.174;2024-03-29T08:01:18;11.00;99.90
674;DHT22;319;48.764;9.174;2024-03-29T08:03:46;11.10;99.90
674;DHT22;319;48.764;9.174;2024-03-29T08:06:14;10.90;96.60
674;DHT22;319;48.764;9.174;2024-03-29T08:11:11;10.70;99.90
674;DHT22;319;48.764;9.174;2024-03-29T08:13:37;10.70;99.90
674;DHT22;319;48.764;9.174;2024-03-29T08:16:05;10.80;99.50
674;DHT22;319;48.764;9.174;2024-03-29T08:18:32;10.80;99.90
674;DHT22;319;48.764;9.174;2024-03-29T08:20:59;11.10;99.90
674;DHT22;319;48.764;9.174;2024-03-29T08:23:27;10.90;99.40
674;DHT22;319;48.764;9.174;2024-03-29T08:25:54;11.10;99.90
674;DHT22;319;48.764;9.174;2024-03-29T08:28:22;11.10;99.90
674;DHT22;319;48.764;9.174;2024-03-29T08:30:58;10.90;99.90
674;DHT22;319;48.764;9.174;2024-03-29T08:33:25;10.90;99.90
674;DHT22;319;48.764;9.174;2024-03-29T08:35:52;11.00;99.90
674;DHT22;319;48.764;9.174;2024-03-29T08:38:19;11.00;99.90
674;DHT22;319;48.764;9.174;2024-03-29T08:40:47;10.90;99.90
674;DHT22;319;48.764;9.174;2024-03-29T08:43:14;11.10;99.90
674;DHT22;319;48.764;9.174;2024-03-29T08:48:08;11.40;99.90
674;DHT22;319;48.764;9.174;2024-03-29T08:50:36;11.20;99.90
674;DHT22;319;48.764;9.174;2024-03-29T08:53:03;11.40;99.90
674;DHT22;319;48.764;9.174;2024-03-29T08:55:29;11.50;99.90
674;DHT22;319;48.764;9.174;2024-03-29T08:57:58;11.10;99.90
674;DHT22;319;48.764;9.174;2024-03-29T09:00:24;11.40;99.90
674;DHT22;319;48.764;9.174;2024-03-29T09:02:51;11.20;99.90
674;DHT22;319;48.764;9.174;2024-03-29T09:05:18;11.30;99.90
674;DHT22;319;48.764;9.174;2024-03-29T09:07:45;11.80;99.90
674;DHT22;319;48.764;9.174;2024-03-29T09:12:39;11.40;99.90
674;DHT22;319;48.764;9.174;2024-03-29T09:15:08;11.80;99.90
674;DHT22;319;48.764;9.174;2024-03-29T09:17:39;11.90;99.90
674;DHT22;319;48.764;9.174;2024-03-29T09:20:07;11.70;99.90
674;DHT22;319;48.764;9.174;2024-03-29T09:22:34;11.80;99.90
674;DHT22;319;48.764;9.174;2024-03-29T09:25:01;11.80;99.90
674;DHT22;319;48.764;9.174;2024-03-29T09:27:30;12.00;99.90
674;DHT22;319;48.764;9.174;2024-03-29T09:32:27;12.30;99.90
674;DHT22;319;48.764;9.174;2024-03-29T09:34:54;12.30;99.90
674;DHT22;319;48.764;9.174;2024-03-29T09:37:21;12.00;99.90
674;DHT22;319;48.764;9.174;2024-03-29T09:39:49;12.00;99.90
674;DHT22;319;48.764;9.174;2024-03-29T09:42:16;12.20;99.90
674;DHT22;319;48.764;9.174;2024-03-29T09:44:44;12.30;99.90
674;DHT22;319;48.764;9.174;2024-03-29T09:47:15;12.50;99.90
674;DHT22;319;48.764;9.174;2024-03-29T09:49:44;12.20;99.90
674;DHT22;319;48.764;9.174;2024-03-29T09:52:13;12.60;99.90
674;DHT22;319;48.764;9.174;2024-03-29T09:54:40;12.90;99.90
674;DHT22;319;48.764;9.174;2024-03-29T09:57:08;13.10;99.90
674;DHT22;319;48.764;9.174;2024-03-29T09:59:36;13.10;99.90
674;DHT22;319;48.764;9.174;2024-03-29T10:02:14;13.50;99.90
674;DHT22;319;48.764;9.174;2024-03-29T10:04:45;14.00;99.90
674;DHT22;319;48.764;9.174;2024-03-29T10:07:13;13.90;99.90
674;DHT22;319;48.764;9.174;2024-03-29T10:09:42;14.20;99.90
674;DHT22;319;48.764;9.174;2024-03-29T10:14:46;14.20;99.90
674;DHT22;319;48.764;9.174;2024-03-29T10:17:18;14.00;99.90
674;DHT22;319;48.764;9.174;2024-03-29T10:19:46;14.20;99.90
674;DHT22;319;48.764;9.174;2024-03-29T10:22:13;13.80;99.90
674;DHT22;319;48.764;9.174;2024-03-29T10:24:40;14.40;99.90
674;DHT22;319;48.764;9.174;2024-03-29T10:27:07;15.00;99.90
674;DHT22;319;48.764;9.174;2024-03-29T10:29:34;15.20;99.90
674;DHT22;319;48.764;9.174;2024-03-29T10:32:01;15.50;99.90
674;DHT22;319;48.764;9.174;2024-03-29T10:34:29;15.40;99.90
674;DHT22;319;48.764;9.174;2024-03-29T10:37:02;15.40;99.90
674;DHT22;319;48.764;9.174;2024-03-29T10:39:29;15.40;99.90
674;DHT22;319;48.764;9.174;2024-03-29T10:41:59;14.80;99.90
674;DHT22;319;48.764;9.174;2024-03-29T10:44:28;15.30;99.90
674;DHT22;319;48.764;9.174;2024-03-29T10:46:56;15.30;99.90
674;DHT22;319;48.764;9.174;2024-03-29T10:51:53;15.90;99.90
674;DHT22;319;48.764;9.174;2024-03-29T10:54:24;15.90;99.90
674;DHT22;319;48.764;9.174;2024-03-29T10:56:59;15.70;99.00
674;DHT22;319;48.764;9.174;2024-03-29T10:59:32;15.70;99.90
674;DHT22;319;48.764;9.174;2024-03-29T11:02:10;16.50;99.90
674;DHT22;319;48.764;9.174;2024-03-29T11:04:39;16.10;99.10
674;DHT22;319;48.764;9.174;2024-03-29T11:07:15;16.20;98.60
674;DHT22;319;48.764;9.174;2024-03-29T11:09:49;16.20;98.90
674;DHT22;319;48.764;9.174;2024-03-29T11:12:18;16.30;98.60
674;DHT22;319;48.764;9.174;2024-03-29T11:14:49;16.30;98.70
674;DHT22;319;48.764;9.174;2024-03-29T11:17:17;16.50;98.60
674;DHT22;319;48.764;9.174;2024-03-29T11:19:45;16.70;98.20
674;DHT22;319;48.764;9.174;2024-03-29T11:22:12;16.70;98.00
674;DHT22;319;48.764;9.174;2024-03-29T11:24:39;16.90;97.80
674;DHT22;319;48.764;9.174;2024-03-29T11:27:09;16.80;97.60
674;DHT22;319;48.764;9.174;2024-03-29T11:29:36;16.90;97.60
674;DHT22;319;48.764;9.174;2024-03-29T11:32:09;16.80;97.50
674;DHT22;319;48.764;9.174;2024-03-29T11:34:43;17.00;97.70
674;DHT22;319;48.764;9.174;2024-03-29T11:37:11;17.20;97.40
674;DHT22;319;48.764;9.174;2024-03-29T11:39:47;17.30;96.80
674;DHT22;319;48.764;9.174;2024-03-29T11:42:16;17.20;97.20
674;DHT22;319;48.764;9.174;2024-03-29T11:44:43;17.20;96.90
674;DHT22;319;48.764;9.174;2024-03-29T11:47:11;17.20;96.50
674;DHT22;319;48.764;9.174;2024-03-29T11:49:43;17.20;96.40
674;DHT22;319;48.764;9.174;2024-03-29T11:52:25;17.20;96.30
674;DHT22;319;48.764;9.174;2024-03-29T11:55:25;17.20;95.80
674;DHT22;319;48.764;9.174;2024-03-29T11:58:11;17.20;95.90
674;DHT22;319;48.764;9.174;2024-03-29T12:04:21;17.20;95.80
674;DHT22;319;48.764;9.174;2024-03-29T12:10:01;17.10;96.30
674;DHT22;319;48.764;9.174;2024-03-29T12:12:38;17.20;95.60
674;DHT22;319;48.764;9.174;2024-03-29T12:15:56;16.90;99.90
674;DHT22;319;48.764;9.174;2024-03-29T12:18:34;17.30;95.20
674;DHT22;319;48.764;9.174;2024-03-29T12:26:48;17.60;94.80
674;DHT22;319;48.764;9.174;2024-03-29T12:29:16;17.80;94.60
674;DHT22;319;48.764;9.174;2024-03-29T12:31:44;18.00;94.40
674;DHT22;319;48.764;9.174;2024-03-29T12:34:21;18.00;93.60
674;DHT22;319;48.764;9.174;2024-03-29T12:36:48;17.90;93.50
674;DHT22;319;48.764;9.174;2024-03-29T12:39:14;18.10;94.00
674;DHT22;319;48.764;9.174;2024-03-29T12:41:43;18.30;93.50
674;DHT22;319;48.764;9.174;2024-03-29T12:44:13;18.40;93.20
674;DHT22;319;48.764;9.174;2024-03-29T12:46:39;18.40;93.00
674;DHT22;319;48.764;9.174;2024-03-29T12:49:10;18.50;93.20
674;DHT22;319;48.764;9.174;2024-03-29T12:51:40;18.60;93.00
674;DHT22;319;48.764;9.174;2024-03-29T12:54:07;18.80;92.90
674;DHT22;319;48.764;9.174;2024-03-29T12:56:36;18.90;92.50
674;DHT22;319;48.764;9.174;2024-03-29T12:59:06;18.70;91.90
674;DHT22;319;48.764;9.174;2024-03-29T13:04:00;18.20;92.20
674;DHT22;319;48.764;9.174;2024-03-29T13:06:28;18.00;93.20
674;DHT22;319;48.764;9.174;2024-03-29T13:08:55;18.00;93.00
674;DHT22;319;48.764;9.174;2024-03-29T13:11:23;18.00;93.50
674;DHT22;319;48.764;9.174;2024-03-29T13:13:51;18.30;93.20
674;DHT22;319;48.764;9.174;2024-03-29T13:16:18;18.50;92.70
674;DHT22;319;48.764;9.174;2024-03-29T13:18:45;18.60;92.40
674;DHT22;319;48.764;9.174;2024-03-29T13:21:12;18.50;92.00
674;DHT22;319;48.764;9.174;2024-03-29T13:23:41;18.20;92.00
674;DHT22;319;48.764;9.174;2024-03-29T13:26:08;18.10;92.40
674;DHT22;319;48.764;9.174;2024-03-29T13:28:35;18.10;92.30
674;DHT22;319;48.764;9.174;2024-03-29T13:31:02;17.90;92.40
674;DHT22;319;48.764;9.174;2024-03-29T13:35:58;17.70;93.00
674;DHT22;319;48.764;9.174;2024-03-29T13:38:24;17.70;93.30
674;DHT22;319;48.764;9.174;2024-03-29T13:40:53;17.70;92.50
674;DHT22;319;48.764;9.174;2024-03-29T13:43:22;17.60;92.30
674;DHT22;319;48.764;9.174;2024-03-29T13:45:49;17.40;99.90
674;DHT22;319;48.764;9.174;2024-03-29T13:48:18;17.20;93.10
674;DHT22;319;48.764;9.174;2024-03-29T13:50:45;17.10;99.90
674;DHT22;319;48.764;9.174;2024-03-29T13:53:11;17.00;93.60
674;DHT22;319;48.764;9.174;2024-03-29T13:55:38;16.90;99.90
674;DHT22;319;48.764;9.174;2024-03-29T13:58:07;17.10;94.10
674;DHT22;319;48.764;9.174;2024-03-29T14:00:34;17.10;99.90
674;DHT22;319;48.764;9.174;2024-03-29T14:03:01;17.30;94.60
674;DHT22;319;48.764;9.174;2024-03-29T14:05:29;17.40;94.70
674;DHT22;319;48.764;9.174;2024-03-29T14:08:00;17.50;94.30
674;DHT22;319;48.764;9.174;2024-03-29T14:10:28;17.40;94.70
674;DHT22;319;48.764;9.174;2024-03-29T14:12:56;17.70;99.90
674;DHT22;319;48.764;9.174;2024-03-29T14:15:25;17.40;94.80
674;DHT22;319;48.764;9.174;2024-03-29T14:17:52;17.50;94.80
674;DHT22;319;48.764;9.174;2024-03-29T14:22:47;17.30;99.90
674;DHT22;319;48.764;9.174;2024-03-29T14:25:17;17.50;94.30
674;DHT22;319;48.764;9.174;2024-03-29T14:27:44;17.60;94.20
674;DHT22;319;48.764;9.174;2024-03-29T14:30:20;17.70;94.30
674;DHT22;319;48.764;9.174;2024-03-29T14:32:50;17.80;93.70
674;DHT22;319;48.764;9.174;2024-03-29T14:35:17;17.80;93.20
674;DHT22;319;48.764;9.174;2024-03-29T14:37:44;17.90;93.10
674;DHT22;319;48.764;9.174;2024-03-29T14:40:12;17.90;93.20
674;DHT22;319;48.764;9.174;2024-03-29T14:45:08;18.00;93.50
674;DHT22;319;48.764;9.174;2024-03-29T14:47:37;18.00;94.10
674;DHT22;319;48.764;9.174;2024-03-29T14:50:06;18.00;93.30
674;DHT22;319;48.764;9.174;2024-03-29T14:52:34;18.00;93.60
674;DHT22;319;48.764;9.174;2024-03-29T14:55:01;17.90;93.50
674;DHT22;319;48.764;9.174;2024-03-29T14:57:28;18.10;98.60
674;DHT22;319;48.764;9.174;2024-03-29T14:59:55;17.90;92.80
674;DHT22;319;48.764;9.174;2024-03-29T15:02:22;17.90;92.40
674;DHT22;319;48.764;9.174;2024-03-29T15:04:49;18.00;91.90
674;DHT22;319;48.764;9.174;2024-03-29T15:07:17;18.00;91.70
674;DHT22;319;48.764;9.174;2024-03-29T15:09:44;18.00;91.60
674;DHT22;319;48.764;9.174;2024-03-29T15:12:11;18.00;91.80
674;DHT22;319;48.764;9.174;2024-03-29T15:14:38;18.00;91.80
674;DHT22;319;48.764;9.174;2024-03-29T15:17:05;18.10;91.90
674;DHT22;319;48.764;9.174;2024-03-29T15:19:32;18.10;91.70
674;DHT22;319;48.764;9.174;2024-03-29T15:21:59;18.30;91.60
674;DHT22;319;48.764;9.174;2024-03-29T15:24:28;18.40;91.40
674;DHT22;319;48.764;9.174;2024-03-29T15:26:55;18.40;91.50
674;DHT22;319;48.764;9.174;2024-03-29T15:29:24;18.40;91.30
674;DHT22;319;48.764;9.174;2024-03-29T15:31:50;18.40;91.20
674;DHT22;319;48.764;9.174;2024-03-29T15:34:17;18.40;90.50
674;DHT22;319;48.764;9.174;2024-03-29T15:36:44;18.40;90.50
674;DHT22;319;48.764;9.174;2024-03-29T15:39:11;18.50;90.60
674;DHT22;319;48.764;9.174;2024-03-29T15:41:41;18.60;90.70
674;DHT22;319;48.764;9.174;2024-03-29T15:44:09;18.70;90.50
674;DHT22;319;48.764;9.174;2024-03-29T15:46:37;18.70;89.20
674;DHT22;319;48.764;9.174;2024-03-29T15:49:06;18.70;88.50
674;DHT22;319;48.764;9.174;2024-03-29T15:51:33;18.60;88.10
674;DHT22;319;48.764;9.174;2024-03-29T15:54:00;18.60;87.70
674;DHT22;319;48.764;9.174;2024-03-29T15:56:27;18.60;87.70
674;DHT22;319;48.764;9.174;2024-03-29T15:58:57;18.50;87.50
674;DHT22;319;48.764;9.174;2024-03-29T16:01:24;18.70;97.30
674;DHT22;319;48.764;9.174;2024-03-29T16:03:51;18.40;88.70
674;DHT22;319;48.764;9.174;2024-03-29T16:06:18;18.50;89.60
674;DHT22;319;48.764;9.174;2024-03-29T16:08:45;18.40;90.00
674;DHT22;319;48.764;9.174;2024-03-29T16:11:12;18.40;90.30
674;DHT22;319;48.764;9.174;2024-03-29T16:13:39;18.40;90.50
674;DHT22;319;48.764;9.174;2024-03-29T16:16:08;18.40;90.60
674;DHT22;319;48.764;9.174;2024-03-29T16:18:35;18.40;90.60
674;DHT22;319;48.764;9.174;2024-03-29T16:21:01;18.40;90.80
674;DHT22;319;48.764;9.174;2024-03-29T16:23:29;18.40;90.70
674;DHT22;319;48.764;9.174;2024-03-29T16:25:58;18.40;90.90
674;DHT22;319;48.764;9.174;2024-03-29T16:28:25;18.40;98.00
674;DHT22;319;48.764;9.174;2024-03-29T16:30:52;18.30;90.90
674;DHT22;319;48.764;9.174;2024-03-29T16:33:19;18.30;91.10
674;DHT22;319;48.764;9.174;2024-03-29T16:35:46;18.10;90.70
674;DHT22;319;48.764;9.174;2024-03-29T16:38:12;18.00;90.80
674;DHT22;319;48.764;9.174;2024-03-29T16:40:39;18.10;98.80
674;DHT22;319;48.764;9.174;2024-03-29T16:43:06;17.90;91.20
674;DHT22;319;48.764;9.174;2024-03-29T16:45:33;18.00;91.30
674;DHT22;319;48.764;9.174;2024-03-29T16:47:59;18.00;91.30
674;DHT22;319;48.764;9.174;2024-03-29T16:50:27;18.00;91.40
674;DHT22;319;48.764;9.174;2024-03-29T16:52:53;18.00;91.50
674;DHT22;319;48.764;9.174;2024-03-29T16:55:20;17.90;91.70
674;DHT22;319;48.764;9.174;2024-03-29T16:57:47;17.80;92.20
674;DHT22;319;48.764;9.174;2024-03-29T17:00:14;17.80;92.50
674;DHT22;319;48.764;9.174;2024-03-29T17:02:42;17.70;93.00
674;DHT22;319;48.764;9.174;2024-03-29T17:05:11;17.60;93.50
674;DHT22;319;48.764;9.174;2024-03-29T17:07:38;17.50;93.80
674;DHT22;319;48.764;9.174;2024-03-29T17:10:05;17.50;94.20
674;DHT22;319;48.764;9.174;2024-03-29T17:12:31;17.40;94.60
674;DHT22;319;48.764;9.174;2024-03-29T17:14:58;17.40;94.40
674;DHT22;319;48.764;9.174;2024-03-29T17:17:25;17.40;94.50
674;DHT22;319;48.764;9.174;2024-03-29T17:19:52;17.40;94.60
674;DHT22;319;48.764;9.174;2024-03-29T17:22:18;17.40;94.80
674;DHT22;319;48.764;9.174;2024-03-29T17:24:47;17.40;95.00
674;DHT22;319;48.764;9.174;2024-03-29T17:27:13;17.30;95.00
674;DHT22;319;48.764;9.174;2024-03-29T17:29:39;17.30;95.20
674;DHT22;319;48.764;9.174;2024-03-29T17:32:06;17.20;95.30
674;DHT22;319;48.764;9.174;2024-03-29T17:34:33;17.20;95.40
674;DHT22;319;48.764;9.174;2024-03-29T17:36:59;17.10;95.80
674;DHT22;319;48.764;9.174;2024-03-29T17:39:26;17.00;95.70
674;DHT22;319;48.764;9.174;2024-03-29T17:41:53;16.90;95.80
674;DHT22;319;48.764;9.174;2024-03-29T17:44:20;16.80;96.00
674;DHT22;319;48.764;9.174;2024-03-29T17:46:46;16.80;96.30
674;DHT22;319;48.764;9.174;2024-03-29T17:49:14;16.70;96.50
674;DHT22;319;48.764;9.174;2024-03-29T17:51:40;16.60;96.60
674;DHT22;319;48.764;9.174;2024-03-29T17:54:07;16.60;96.80
674;DHT22;319;48.764;9.174;2024-03-29T17:56:33;16.50;97.00
674;DHT22;319;48.764;9.174;2024-03-29T17:59:01;16.50;97.20
674;DHT22;319;48.764;9.174;2024-03-29T18:01:27;16.40;97.30
674;DHT22;319;48.764;9.174;2024-03-29T18:03:54;16.30;97.50
674;DHT22;319;48.764;9.174;2024-03-29T18:06:21;16.30;97.70
674;DHT22;319;48.764;9.174;2024-03-29T18:08:48;16.20;97.90
674;DHT22;319;48.764;9.174;2024-03-29T18:11:14;16.10;98.10
674;DHT22;319;48.764;9.174;2024-03-29T18:13:41;16.10;98.40
674;DHT22;319;48.764;9.174;2024-03-29T18:16:09;16.00;98.50
674;DHT22;319;48.764;9.174;2024-03-29T18:18:36;15.90;98.70
674;DHT22;319;48.764;9.174;2024-03-29T18:21:02;15.80;99.00
674;DHT22;319;48.764;9.174;2024-03-29T18:23:29;15.80;99.10
674;DHT22;319;48.764;9.174;2024-03-29T18:25:55;15.70;99.20
674;DHT22;319;48.764;9.174;2024-03-29T18:28:23;15.70;99.20
674;DHT22;319;48.764;9.174;2024-03-29T18:30:50;15.70;99.30
674;DHT22;319;48.764;9.174;2024-03-29T18:33:19;15.70;99.70
674;DHT22;319;48.764;9.174;2024-03-29T18:35:47;15.60;99.60
674;DHT22;319;48.764;9.174;2024-03-29T18:38:14;15.50;99.70
674;DHT22;319;48.764;9.174;2024-03-29T18:40:40;15.30;99.90
674;DHT22;319;48.764;9.174;2024-03-29T18:43:07;15.40;99.90
674;DHT22;319;48.764;9.174;2024-03-29T18:45:37;15.40;99.90
674;DHT22;319;48.764;9.174;2024-03-29T18:48:04;15.30;99.90